Time;durP1;ratioP1;P1;durP2;ratioP2;P2;SDS_P1;SDS_P2;PMS_P1;PMS_P2;Temp;Humidity;BMP_temperature;BMP_pressure;BME280_temperature;BME280_humidity;BME280_pressure;Samples;Min_cycle;Max_cycle;Signal;HPM_P1;HPM_P2
2022/09/07 00:01:56;;;;;;;11.20;7.18;;;;;;;;;;5050427;28;20539;-59
2022/09/07 00:04:22;;;;;;;12.05;8.13;;;;;;;;;;5030338;28;20044;-59
2022/09/07 00:06:48;;;;;;;12.43;7.82;;;;;;;;;;5030072;28;20045;-59
2022/09/07 00:09:14;;;;;;;8.63;7.63;;;;;;;;;;5030210;28;20049;-58
2022/09/07 00:11:40;;;;;;;9.05;7.60;;;;;;;;;;5030586;28;20041;-59
2022/09/07 00:14:06;;;;;;;9.98;7.72;;;;;;;;;;5029945;28;20450;-59
2022/09/07 00:16:32;;;;;;;12.27;8.27;;;;;;;;;;5030594;28;20360;-59
2022/09/07 00:19:00;;;;;;;12.57;7.60;;;;;;;;;;5030414;28;20427;-59
2022/09/07 00:21:26;;;;;;;8.43;7.53;;;;;;;;;;5030018;28;20061;-58
2022/09/07 00:23:53;;;;;;;13.02;7.65;;;;;;;;;;5030437;28;20088;-58
2022/09/07 00:26:23;;;;;;;14.13;8.30;;;;;;;;;;5041485;28;20037;-59
2022/09/07 00:28:50;;;;;;;10.80;7.63;;;;;;;;;;5049782;28;20036;-58
2022/09/07 00:31:18;;;;;;;10.55;7.90;;;;;;;;;;5050191;28;20040;-57
2022/09/07 00:33:44;;;;;;;9.68;8.00;;;;;;;;;;5052923;28;20056;-58
2022/09/07 00:36:10;;;;;;;10.85;7.68;;;;;;;;;;5035438;28;20033;-58
2022/09/07 00:38:36;;;;;;;11.27;8.00;;;;;;;;;;5053727;28;20041;-59
2022/09/07 00:41:03;;;;;;;15.02;7.88;;;;;;;;;;5053865;28;20063;-58
2022/09/07 00:43:29;;;;;;;11.48;8.55;;;;;;;;;;5035326;28;20033;-58
2022/09/07 00:45:55;;;;;;;15.13;8.82;;;;;;;;;;5053849;28;20039;-59
2022/09/07 00:48:24;;;;;;;9.50;8.50;;;;;;;;;;5053749;28;20345;-59
2022/09/07 00:50:52;;;;;;;12.45;8.60;;;;;;;;;;5053336;28;20041;-59
2022/09/07 00:53:22;;;;;;;12.20;8.43;;;;;;;;;;5053361;28;20048;-58
2022/09/07 00:55:50;;;;;;;13.82;8.82;;;;;;;;;;5053561;28;20045;-58
2022/09/07 00:58:17;;;;;;;13.15;9.30;;;;;;;;;;5052967;28;20041;-58
2022/09/07 01:00:45;;;;;;;16.65;9.70;;;;;;;;;;5053165;28;20037;-58
2022/09/07 01:03:11;;;;;;;14.23;9.57;;;;;;;;;;5043266;28;20072;-59
2022/09/07 01:05:43;;;;;;;21.88;10.98;;;;;;;;;;5033034;28;20044;-59
2022/09/07 01:08:09;;;;;;;18.80;11.75;;;;;;;;;;5032837;28;20045;-57
2022/09/07 01:10:36;;;;;;;18.20;11.57;;;;;;;;;;5033369;28;20052;-58
2022/09/07 01:13:02;;;;;;;14.90;11.48;;;;;;;;;;5032643;28;20103;-59
2022/09/07 01:15:34;;;;;;;14.93;12.35;;;;;;;;;;5032941;28;20045;-58
2022/09/07 01:18:06;;;;;;;17.73;13.55;;;;;;;;;;5033127;28;20049;-58
2022/09/07 01:20:32;;;;;;;;;;;;;;;;;;5033259;28;20041;-58
2022/09/07 01:23:21;;;;;;;14.93;12.63;;;;;;;;;;5033338;28;19924;-58
2022/09/07 01:25:57;;;;;;;21.42;14.25;;;;;;;;;;5031596;28;20136;-58
2022/09/07 01:28:27;;;;;;;16.88;13.52;;;;;;;;;;5052489;28;20640;-58
2022/09/07 01:30:57;;;;;;;16.75;13.95;;;;;;;;;;5052971;28;20120;-59
2022/09/07 01:33:38;;;;;;;14.35;12.75;;;;;;;;;;5052880;28;20090;-58
2022/09/07 01:36:11;;;;;;;16.35;13.63;;;;;;;;;;5052615;28;20052;-58
2022/09/07 01:38:43;;;;;;;18.15;13.75;;;;;;;;;;5052689;28;20156;-58
2022/09/07 01:41:09;;;;;;;;;;;;;;;;;;5052928;28;20376;-58
2022/09/07 01:43:40;;;;;;;15.70;13.02;;;;;;;;;;5052500;28;19917;-58
2022/09/07 01:46:10;;;;;;;16.00;13.68;;;;;;;;;;5052758;28;20066;-59
2022/09/07 01:48:37;;;;;;;15.60;13.13;;;;;;;;;;5052156;28;20095;-58
2022/09/07 01:51:03;;;;;;;15.43;12.85;;;;;;;;;;5052587;28;20383;-58
2022/09/07 01:53:34;;;;;;;14.70;12.68;;;;;;;;;;5052631;28;20041;-58
2022/09/07 01:56:03;;;;;;;17.98;12.45;;;;;;;;;;5051878;28;20060;-58
2022/09/07 01:58:32;;;;;;;13.80;12.30;;;;;;;;;;5052286;28;20040;-58
2022/09/07 02:01:02;;;;;;;19.63;12.40;;;;;;;;;;5052521;28;20083;-58
2022/09/07 02:03:28;;;;;;;15.18;12.43;;;;;;;;;;5039497;28;20052;-58
2022/09/07 02:06:04;;;;;;;13.65;11.30;;;;;;;;;;5031963;28;20084;-58
2022/09/07 02:08:41;;;;;;;12.13;9.88;;;;;;;;;;5032133;28;20049;-58
2022/09/07 02:11:10;;;;;;;14.43;10.85;;;;;;;;;;5031226;28;20408;-59
2022/09/07 02:13:41;;;;;;;16.38;10.90;;;;;;;;;;5014675;28;20362;-58
2022/09/07 02:16:09;;;;;;;12.90;10.20;;;;;;;;;;5032143;28;20049;-59
2022/09/07 02:18:38;;;;;;;12.63;10.90;;;;;;;;;;5031038;28;20129;-58
2022/09/07 02:21:07;;;;;;;11.40;10.20;;;;;;;;;;5031510;28;20037;-58
2022/09/07 02:23:37;;;;;;;11.45;10.25;;;;;;;;;;5031856;28;20040;-57
2022/09/07 02:26:06;;;;;;;10.75;9.30;;;;;;;;;;5040060;28;20072;-58
2022/09/07 02:28:33;;;;;;;13.38;10.00;;;;;;;;;;5051839;28;20515;-59
2022/09/07 02:31:00;;;;;;;12.80;10.65;;;;;;;;;;5051625;28;20037;-58
2022/09/07 02:33:26;;;;;;;12.73;10.35;;;;;;;;;;5051356;28;20049;-59
2022/09/07 02:35:52;;;;;;;11.55;10.35;;;;;;;;;;5051693;28;20102;-59
2022/09/07 02:38:19;;;;;;;13.15;10.10;;;;;;;;;;5051458;28;20044;-59
2022/09/07 02:40:55;;;;;;;12.18;10.93;;;;;;;;;;5051235;28;20045;-59
2022/09/07 02:43:22;;;;;;;11.60;9.43;;;;;;;;;;5051670;28;20088;-59
2022/09/07 02:46:23;;;;;;;12.32;10.05;;;;;;;;;;5051675;28;20033;-59
2022/09/07 02:48:50;;;;;;;12.25;9.73;;;;;;;;;;4950494;29;20043;-59
2022/09/07 02:51:39;;;;;;;10.40;9.40;;;;;;;;;;5030929;28;20053;-59
2022/09/07 02:54:13;;;;;;;9.98;9.05;;;;;;;;;;5051299;28;20083;-59
2022/09/07 02:57:00;;;;;;;11.65;8.82;;;;;;;;;;5050162;28;20068;-59
2022/09/07 02:59:42;;;;;;;10.45;9.00;;;;;;;;;;5033923;28;20112;-59
2022/09/07 03:02:08;;;;;;;;;;;;;;;;;;5050142;28;20045;-59
2022/09/07 03:04:34;;;;;;;11.77;9.73;;;;;;;;;;5030933;28;19947;-59
2022/09/07 03:07:03;;;;;;;10.32;8.77;;;;;;;;;;5013066;28;20045;-59
2022/09/07 03:09:32;;;;;;;11.23;9.05;;;;;;;;;;5030870;28;20054;-58
2022/09/07 03:12:01;;;;;;;10.85;9.50;;;;;;;;;;5030776;28;20045;-59
2022/09/07 03:14:29;;;;;;;12.93;9.85;;;;;;;;;;5031089;28;20080;-59
2022/09/07 03:16:56;;;;;;;10.93;9.82;;;;;;;;;;5031100;28;20052;-59
2022/09/07 03:19:22;;;;;;;12.02;8.93;;;;;;;;;;5030914;28;20201;-59
2022/09/07 03:21:48;;;;;;;10.60;9.50;;;;;;;;;;5031087;28;20458;-58
2022/09/07 03:24:14;;;;;;;12.60;9.38;;;;;;;;;;5031149;28;20037;-59
2022/09/07 03:26:42;;;;;;;11.10;9.10;;;;;;;;;;5044616;28;20040;-59
2022/09/07 03:29:08;;;;;;;10.38;8.98;;;;;;;;;;5050902;28;20041;-59
2022/09/07 03:31:35;;;;;;;11.68;9.52;;;;;;;;;;5050879;28;20052;-58
2022/09/07 03:34:01;;;;;;;10.23;8.93;;;;;;;;;;5050343;28;20045;-58
2022/09/07 03:36:28;;;;;;;9.43;8.43;;;;;;;;;;5050772;28;20128;-59
2022/09/07 03:38:54;;;;;;;9.77;8.57;;;;;;;;;;5050674;28;20041;-59
2022/09/07 03:41:20;;;;;;;10.18;8.80;;;;;;;;;;5050177;28;20044;-58
2022/09/07 03:43:47;;;;;;;11.82;9.45;;;;;;;;;;5050557;28;20052;-59
2022/09/07 03:46:16;;;;;;;10.70;9.30;;;;;;;;;;5050719;28;20037;-58
2022/09/07 03:48:43;;;;;;;10.30;9.27;;;;;;;;;;5049953;28;20059;-59
2022/09/07 03:51:10;;;;;;;14.15;9.98;;;;;;;;;;5050565;28;20464;-58
2022/09/07 03:53:37;;;;;;;12.00;9.80;;;;;;;;;;5050532;28;20049;-59
2022/09/07 03:56:05;;;;;;;11.30;9.90;;;;;;;;;;5049932;28;20041;-59
2022/09/07 03:58:32;;;;;;;12.75;10.45;;;;;;;;;;5050240;28;20053;-58
2022/09/07 04:00:59;;;;;;;10.73;9.27;;;;;;;;;;5050562;28;20033;-59
2022/09/07 04:03:25;;;;;;;12.68;10.20;;;;;;;;;;5037807;28;20087;-59
2022/09/07 04:05:51;;;;;;;13.35;10.18;;;;;;;;;;5030486;28;20460;-59
2022/09/07 04:08:17;;;;;;;12.95;11.30;;;;;;;;;;5032329;28;20052;-59
2022/09/07 04:10:43;;;;;;;12.75;10.82;;;;;;;;;;5034120;28;20049;-59
2022/09/07 04:13:09;;;;;;;13.13;11.60;;;;;;;;;;5034521;28;20527;-59
2022/09/07 04:15:36;;;;;;;13.73;12.23;;;;;;;;;;5034544;28;20037;-58
2022/09/07 04:18:02;;;;;;;14.68;11.93;;;;;;;;;;5034031;28;20755;-58
2022/09/07 04:20:29;;;;;;;15.52;13.32;;;;;;;;;;5034172;28;20053;-58
2022/09/07 04:22:55;;;;;;;15.32;13.73;;;;;;;;;;5034337;28;20045;-59
2022/09/07 04:25:22;;;;;;;14.23;12.70;;;;;;;;;;5037347;28;20112;-59
2022/09/07 04:27:48;;;;;;;16.98;13.02;;;;;;;;;;5054095;28;20049;-59
2022/09/07 04:30:14;;;;;;;15.80;12.02;;;;;;;;;;5054193;28;20579;-58
2022/09/07 04:32:40;;;;;;;15.38;13.07;;;;;;;;;;5053544;28;20052;-59
2022/09/07 04:35:06;;;;;;;14.85;13.20;;;;;;;;;;5054145;28;20097;-59
2022/09/07 04:37:32;;;;;;;16.63;14.00;;;;;;;;;;5053864;28;20079;-59
2022/09/07 04:39:58;;;;;;;16.83;13.55;;;;;;;;;;5053497;28;20456;-59
2022/09/07 04:42:24;;;;;;;16.58;14.60;;;;;;;;;;5053596;28;20048;-59
2022/09/07 04:44:50;;;;;;;18.10;14.00;;;;;;;;;;5050567;28;20068;-58
2022/09/07 04:47:16;;;;;;;16.85;14.43;;;;;;;;;;5039241;28;20041;-59
2022/09/07 04:49:42;;;;;;;16.17;14.05;;;;;;;;;;5033876;28;20502;-59
2022/09/07 04:52:08;;;;;;;20.23;14.38;;;;;;;;;;5033500;28;20088;-59
2022/09/07 04:54:34;;;;;;;19.17;13.80;;;;;;;;;;5033447;28;20038;-59
2022/09/07 04:57:01;;;;;;;17.88;13.40;;;;;;;;;;5033495;28;20056;-59
2022/09/07 04:59:27;;;;;;;18.73;13.55;;;;;;;;;;5033633;28;20039;-59
2022/09/07 05:01:53;;;;;;;16.27;13.50;;;;;;;;;;5033228;28;20480;-59
2022/09/07 05:04:19;;;;;;;16.13;14.23;;;;;;;;;;5052793;28;20040;-59
2022/09/07 05:06:45;;;;;;;18.42;14.60;;;;;;;;;;5053254;28;20123;-59
2022/09/07 05:09:11;;;;;;;16.08;14.20;;;;;;;;;;5043532;28;20068;-58
2022/09/07 05:11:37;;;;;;;17.15;14.07;;;;;;;;;;5052956;28;20119;-59
2022/09/07 05:14:03;;;;;;;19.00;16.02;;;;;;;;;;5052612;28;20601;-59
2022/09/07 05:16:30;;;;;;;18.33;14.75;;;;;;;;;;5052733;28;20052;-59
2022/09/07 05:19:00;;;;;;;16.95;15.00;;;;;;;;;;5034245;28;20124;-58
2022/09/07 05:21:30;;;;;;;18.30;14.80;;;;;;;;;;5033124;28;20029;-57
2022/09/07 05:23:57;;;;;;;18.02;15.07;;;;;;;;;;5032859;28;20467;-58
2022/09/07 05:26:24;;;;;;;17.85;15.95;;;;;;;;;;5044626;28;20043;-58
2022/09/07 05:28:51;;;;;;;17.15;15.38;;;;;;;;;;5052682;28;20366;-59
2022/09/07 05:31:18;;;;;;;19.30;16.13;;;;;;;;;;5052352;28;20447;-58
2022/09/07 05:33:48;;;;;;;20.60;16.73;;;;;;;;;;5048700;28;20042;-58
2022/09/07 05:36:14;;;;;;;19.42;16.05;;;;;;;;;;5032798;28;20041;-58
2022/09/07 05:38:40;;;;;;;21.08;16.83;;;;;;;;;;5031886;28;20103;-58
2022/09/07 05:41:25;;;;;;;23.15;17.42;;;;;;;;;;5032210;28;20627;-58
2022/09/07 05:43:52;;;;;;;20.38;17.23;;;;;;;;;;5014788;28;20045;-58
2022/09/07 05:46:19;;;;;;;18.85;16.83;;;;;;;;;;5032178;28;20448;-59
2022/09/07 05:48:45;;;;;;;21.05;18.05;;;;;;;;;;5032379;28;20041;-59
2022/09/07 05:51:12;;;;;;;19.05;16.05;;;;;;;;;;5014527;28;20121;-59
2022/09/07 05:53:39;;;;;;;23.77;18.73;;;;;;;;;;5031928;28;20143;-58
2022/09/07 05:56:05;;;;;;;21.48;16.95;;;;;;;;;;5032173;28;20099;-59
2022/09/07 05:58:32;;;;;;;21.85;17.33;;;;;;;;;;5031785;28;20125;-58
2022/09/07 06:00:59;;;;;;;19.58;16.98;;;;;;;;;;5031777;28;20072;-58
2022/09/07 06:03:25;;;;;;;20.13;17.58;;;;;;;;;;5044367;28;20047;-58
2022/09/07 06:06:07;;;;;;;20.70;17.48;;;;;;;;;;5043873;28;20045;-59
2022/09/07 06:08:34;;;;;;;19.85;16.83;;;;;;;;;;5031625;28;20519;-59
2022/09/07 06:11:07;;;;;;;25.23;18.77;;;;;;;;;;5045028;28;20476;-59
2022/09/07 06:13:34;;;;;;;19.80;17.10;;;;;;;;;;5052004;28;20048;-58
2022/09/07 06:16:04;;;;;;;19.23;16.52;;;;;;;;;;5051557;28;20408;-58
2022/09/07 06:18:34;;;;;;;18.40;16.48;;;;;;;;;;5051198;28;20080;-59
2022/09/07 06:21:11;;;;;;;20.05;17.75;;;;;;;;;;5051798;28;20360;-59
2022/09/07 06:23:38;;;;;;;24.42;20.80;;;;;;;;;;5051629;28;20395;-59
2022/09/07 06:26:04;;;;;;;21.60;18.90;;;;;;;;;;5042452;28;20037;-58
2022/09/07 06:28:32;;;;;;;23.85;19.92;;;;;;;;;;5031836;28;20038;-59
2022/09/07 06:31:06;;;;;;;25.33;19.95;;;;;;;;;;5030613;28;20540;-59
2022/09/07 06:33:32;;;;;;;29.70;21.02;;;;;;;;;;5018371;28;20735;-59
2022/09/07 06:35:59;;;;;;;27.17;22.85;;;;;;;;;;5051649;28;20060;-59
2022/09/07 06:38:28;;;;;;;26.00;21.55;;;;;;;;;;5050984;28;20421;-59
2022/09/07 06:40:54;;;;;;;27.15;21.88;;;;;;;;;;5046213;28;20482;-61
2022/09/07 06:43:20;;;;;;;28.02;23.45;;;;;;;;;;5040475;28;20067;-60
2022/09/07 06:45:55;;;;;;;29.73;24.40;;;;;;;;;;5038766;28;20087;-60
2022/09/07 06:48:21;;;;;;;30.08;25.15;;;;;;;;;;5030987;28;20048;-60
2022/09/07 06:51:01;;;;;;;28.42;23.00;;;;;;;;;;5032622;28;20045;-60
2022/09/07 06:53:31;;;;;;;29.50;25.10;;;;;;;;;;5033199;28;20049;-59
2022/09/07 06:55:58;;;;;;;32.72;27.08;;;;;;;;;;5050515;28;20080;-60
2022/09/07 06:58:24;;;;;;;30.63;26.63;;;;;;;;;;5032381;28;20404;-60
2022/09/07 07:00:51;;;;;;;32.65;27.05;;;;;;;;;;5028683;28;20045;-60
2022/09/07 07:03:17;;;;;;;29.52;24.70;;;;;;;;;;5042918;28;20041;-60
2022/09/07 07:05:56;;;;;;;34.67;26.30;;;;;;;;;;5035783;28;20037;-60
2022/09/07 07:08:23;;;;;;;32.13;26.95;;;;;;;;;;5029770;28;20149;-60
2022/09/07 07:10:50;;;;;;;34.28;25.52;;;;;;;;;;5044707;28;20371;-60
2022/09/07 07:13:16;;;;;;;34.10;26.23;;;;;;;;;;5048917;28;20487;-60
2022/09/07 07:15:42;;;;;;;28.08;23.02;;;;;;;;;;5040017;28;20060;-60
2022/09/07 07:18:09;;;;;;;40.97;30.63;;;;;;;;;;5027528;28;20096;-60
2022/09/07 07:20:36;;;;;;;31.48;25.33;;;;;;;;;;5032542;28;20037;-60
2022/09/07 07:23:02;;;;;;;37.25;29.88;;;;;;;;;;5028375;28;20476;-61
2022/09/07 07:25:28;;;;;;;34.70;27.00;;;;;;;;;;5028360;28;20037;-60
2022/09/07 07:27:54;;;;;;;37.08;28.02;;;;;;;;;;5027045;28;20471;-61
2022/09/07 07:30:20;;;;;;;35.47;28.27;;;;;;;;;;5034711;28;20099;-60
2022/09/07 07:32:46;;;;;;;37.08;28.67;;;;;;;;;;5028359;28;20045;-61
2022/09/07 07:35:13;;;;;;;34.53;26.25;;;;;;;;;;5046587;28;20053;-60
2022/09/07 07:37:39;;;;;;;35.50;29.23;;;;;;;;;;5049065;28;20476;-61
2022/09/07 07:40:07;;;;;;;37.45;30.20;;;;;;;;;;5050253;28;20464;-60
2022/09/07 07:42:34;;;;;;;42.70;28.90;;;;;;;;;;5038011;28;20116;-61
2022/09/07 07:45:00;;;;;;;34.88;28.27;;;;;;;;;;5028766;28;20045;-60
2022/09/07 07:47:27;;;;;;;40.30;29.33;;;;;;;;;;5028995;28;20130;-61
2022/09/07 07:49:53;;;;;;;35.05;27.80;;;;;;;;;;5027970;28;20409;-61
2022/09/07 07:52:20;;;;;;;41.28;30.70;;;;;;;;;;5028917;28;20037;-60
2022/09/07 07:54:46;;;;;;;34.85;27.25;;;;;;;;;;5037086;28;20049;-60
2022/09/07 07:57:12;;;;;;;28.40;24.08;;;;;;;;;;5036712;28;20055;-60
2022/09/07 07:59:38;;;;;;;33.03;26.45;;;;;;;;;;5029868;28;20542;-60
2022/09/07 08:02:07;;;;;;;28.25;22.80;;;;;;;;;;5026716;28;20037;-60
2022/09/07 08:04:34;;;;;;;29.45;21.60;;;;;;;;;;5033265;28;20095;-60
2022/09/07 08:07:00;;;;;;;27.15;22.50;;;;;;;;;;5025648;28;20041;-60
2022/09/07 08:09:26;;;;;;;26.70;21.08;;;;;;;;;;5027286;28;20061;-60
2022/09/07 08:11:52;;;;;;;26.13;21.13;;;;;;;;;;5027993;28;20049;-60
2022/09/07 08:14:18;;;;;;;26.83;21.13;;;;;;;;;;5044994;28;20470;-61
2022/09/07 08:16:44;;;;;;;24.15;19.63;;;;;;;;;;5049315;28;20072;-61
2022/09/07 08:19:11;;;;;;;25.08;20.42;;;;;;;;;;5049470;28;20076;-60
2022/09/07 08:21:37;;;;;;;25.95;20.23;;;;;;;;;;5046658;28;20838;-60
2022/09/07 08:24:03;;;;;;;22.10;18.05;;;;;;;;;;5029349;28;20073;-61
2022/09/07 08:26:29;;;;;;;21.83;18.27;;;;;;;;;;5039471;28;20044;-60
2022/09/07 08:28:55;;;;;;;23.02;17.80;;;;;;;;;;5048824;28;20055;-60
2022/09/07 08:31:22;;;;;;;21.08;16.77;;;;;;;;;;5049659;28;20369;-60
2022/09/07 08:33:48;;;;;;;19.85;14.88;;;;;;;;;;5045225;28;20144;-60
2022/09/07 08:36:15;;;;;;;19.15;14.45;;;;;;;;;;5029133;28;20130;-60
2022/09/07 08:38:41;;;;;;;21.25;15.68;;;;;;;;;;5048264;28;20042;-60
2022/09/07 08:41:26;;;;;;;17.95;16.05;;;;;;;;;;5049449;28;20087;-60
2022/09/07 08:43:57;;;;;;;20.65;14.65;;;;;;;;;;5046170;28;20087;-60
2022/09/07 08:46:28;;;;;;;20.27;14.85;;;;;;;;;;5027310;28;20166;-61
2022/09/07 08:48:55;;;;;;;14.70;12.63;;;;;;;;;;5031241;28;20133;-60
2022/09/07 08:51:26;;;;;;;18.40;13.93;;;;;;;;;;5034282;28;20071;-60
2022/09/07 08:53:52;;;;;;;18.30;14.25;;;;;;;;;;5039684;28;20439;-60
2022/09/07 08:56:23;;;;;;;17.58;14.18;;;;;;;;;;5051132;28;20048;-60
2022/09/07 08:58:52;;;;;;;16.98;13.43;;;;;;;;;;5043154;28;20048;-60
2022/09/07 09:01:19;;;;;;;15.30;13.15;;;;;;;;;;5052871;28;20041;-61
2022/09/07 09:03:49;;;;;;;15.25;13.07;;;;;;;;;;5019350;28;20041;-61
2022/09/07 09:06:17;;;;;;;16.20;12.75;;;;;;;;;;5037820;28;20048;-61
2022/09/07 09:08:55;;;;;;;16.52;12.93;;;;;;;;;;5052188;28;20053;-60
2022/09/07 09:11:27;;;;;;;14.30;11.82;;;;;;;;;;5037382;28;20658;-60
2022/09/07 09:14:10;;;;;;;15.00;11.73;;;;;;;;;;5031453;28;20103;-60
2022/09/07 09:16:39;;;;;;;12.98;11.57;;;;;;;;;;5032169;28;20499;-61
2022/09/07 09:19:05;;;;;;;16.85;11.95;;;;;;;;;;5032425;28;20046;-60
2022/09/07 09:21:31;;;;;;;14.02;11.18;;;;;;;;;;5031369;28;20680;-60
2022/09/07 09:24:05;;;;;;;15.00;11.55;;;;;;;;;;5051888;28;20070;-60
2022/09/07 09:26:31;;;;;;;13.48;10.63;;;;;;;;;;5048449;28;20064;-61
2022/09/07 09:28:57;;;;;;;12.13;10.05;;;;;;;;;;5051896;28;20041;-60
2022/09/07 09:31:27;;;;;;;13.45;10.32;;;;;;;;;;5037724;28;20087;-60
2022/09/07 09:34:05;;;;;;;14.35;11.43;;;;;;;;;;5033404;28;20068;-61
2022/09/07 09:36:33;;;;;;;12.40;9.23;;;;;;;;;;5033568;28;20041;-60
2022/09/07 09:39:00;;;;;;;12.25;9.52;;;;;;;;;;5051924;28;20041;-61
2022/09/07 09:41:34;;;;;;;13.52;9.88;;;;;;;;;;5052152;28;20091;-60
2022/09/07 09:44:02;;;;;;;10.50;9.18;;;;;;;;;;5051198;28;20451;-61
2022/09/07 09:46:29;;;;;;;12.00;9.55;;;;;;;;;;5046446;28;20037;-61
2022/09/07 09:49:04;;;;;;;10.55;9.07;;;;;;;;;;5032199;28;20442;-60
2022/09/07 09:51:32;;;;;;;9.38;8.40;;;;;;;;;;5046633;28;20036;-60
2022/09/07 09:53:58;;;;;;;10.35;9.15;;;;;;;;;;5049013;28;20041;-61
2022/09/07 09:56:41;;;;;;;11.38;9.13;;;;;;;;;;5031348;28;20195;-60
2022/09/07 09:59:16;;;;;;;11.52;9.77;;;;;;;;;;5031282;28;20563;-60
2022/09/07 10:01:42;;;;;;;11.93;9.18;;;;;;;;;;5031978;28;20103;-61
2022/09/07 10:04:31;;;;;;;12.57;9.35;;;;;;;;;;5030197;28;20124;-61
2022/09/07 10:07:03;;;;;;;11.48;8.45;;;;;;;;;;5040310;28;20499;-61
2022/09/07 10:09:29;;;;;;;;;;;;;;;;;;5051568;28;20053;-61
2022/09/07 10:11:58;;;;;;;11.98;8.18;;;;;;;;;;5050930;28;19917;-61
2022/09/07 10:14:29;;;;;;;9.63;8.10;;;;;;;;;;5047985;28;20049;-61
2022/09/07 10:16:55;;;;;;;9.57;7.32;;;;;;;;;;5050837;28;20391;-61
2022/09/07 10:19:30;;;;;;;9.30;8.38;;;;;;;;;;5040269;28;20048;-61
2022/09/07 10:21:57;;;;;;;8.35;7.50;;;;;;;;;;5032176;28;20068;-61
2022/09/07 10:24:28;;;;;;;9.85;7.18;;;;;;;;;;5051786;28;20048;-61
2022/09/07 10:26:54;;;;;;;9.05;6.90;;;;;;;;;;5034253;28;20084;-61
2022/09/07 10:29:21;;;;;;;14.38;7.25;;;;;;;;;;5031499;28;20038;-61
2022/09/07 10:31:56;;;;;;;8.75;6.28;;;;;;;;;;5031352;28;20107;-61
2022/09/07 10:34:22;;;;;;;7.80;6.03;;;;;;;;;;5030540;28;20049;-61
2022/09/07 10:36:48;;;;;;;9.82;7.53;;;;;;;;;;5013544;28;20515;-60
2022/09/07 10:39:17;;;;;;;9.05;7.45;;;;;;;;;;5031241;28;20050;-61
2022/09/07 10:41:48;;;;;;;9.60;6.97;;;;;;;;;;5030651;28;20654;-61
2022/09/07 10:44:19;;;;;;;11.20;7.10;;;;;;;;;;5031552;28;20163;-60
2022/09/07 10:46:59;;;;;;;8.80;7.13;;;;;;;;;;5031032;28;20310;-60
2022/09/07 10:49:28;;;;;;;8.57;7.15;;;;;;;;;;5031197;28;20368;-60
2022/09/07 10:52:03;;;;;;;10.75;7.18;;;;;;;;;;5031290;28;20068;-60
2022/09/07 10:54:35;;;;;;;9.63;6.90;;;;;;;;;;5031133;28;20041;-61
2022/09/07 10:57:19;;;;;;;12.63;6.93;;;;;;;;;;5030928;28;20056;-60
2022/09/07 10:59:57;;;;;;;9.57;7.30;;;;;;;;;;5031152;28;20049;-61
2022/09/07 11:02:42;;;;;;;9.75;6.57;;;;;;;;;;5034278;28;20037;-60
2022/09/07 11:05:21;;;;;;;13.35;8.48;;;;;;;;;;5050607;28;20099;-59
2022/09/07 11:07:50;;;;;;;10.75;7.18;;;;;;;;;;5050515;28;20037;-60
2022/09/07 11:10:20;;;;;;;11.10;6.88;;;;;;;;;;5047929;28;20131;-59
2022/09/07 11:12:47;;;;;;;10.15;6.68;;;;;;;;;;5030468;28;20120;-58
2022/09/07 11:15:13;;;;;;;11.50;7.13;;;;;;;;;;5030939;28;20124;-60
2022/09/07 11:18:05;;;;;;;9.60;6.68;;;;;;;;;;5012362;28;20514;-59
2022/09/07 11:20:31;;;;;;;;;;;;;;;;;;5027066;28;20431;-60
2022/09/07 11:23:00;;;;;;;10.93;7.30;;;;;;;;;;5030867;28;19971;-59
2022/09/07 11:25:35;;;;;;;11.45;7.10;;;;;;;;;;5034611;28;20065;-60
2022/09/07 11:28:04;;;;;;;10.30;6.70;;;;;;;;;;5050071;28;20129;-60
2022/09/07 11:30:34;;;;;;;9.88;6.40;;;;;;;;;;5050661;28;20539;-60
2022/09/07 11:33:09;;;;;;;10.57;6.40;;;;;;;;;;5050586;28;20099;-60
2022/09/07 11:35:38;;;;;;;12.32;5.90;;;;;;;;;;5037621;28;20033;-59
2022/09/07 11:38:27;;;;;;;7.97;5.68;;;;;;;;;;5030116;28;20052;-59
2022/09/07 11:40:56;;;;;;;11.55;7.18;;;;;;;;;;5017070;28;20080;-60
2022/09/07 11:43:36;;;;;;;9.93;5.93;;;;;;;;;;5030462;28;20127;-60
2022/09/07 11:46:05;;;;;;;11.48;6.57;;;;;;;;;;5030598;28;20702;-60
2022/09/07 11:48:45;;;;;;;10.80;6.57;;;;;;;;;;5029898;28;20056;-60
2022/09/07 11:51:17;;;;;;;10.48;6.85;;;;;;;;;;5030453;28;20041;-58
2022/09/07 11:53:45;;;;;;;10.77;6.55;;;;;;;;;;5028555;28;20073;-60
2022/09/07 11:56:14;;;;;;;10.55;6.35;;;;;;;;;;5029408;28;20037;-60
2022/09/07 11:58:59;;;;;;;9.90;6.22;;;;;;;;;;5029997;28;20041;-60
2022/09/07 12:01:25;;;;;;;9.90;6.30;;;;;;;;;;5030322;28;20049;-59
2022/09/07 12:04:11;;;;;;;10.70;6.03;;;;;;;;;;5044638;28;20361;-59
2022/09/07 12:06:43;;;;;;;6.72;5.00;;;;;;;;;;5049799;28;20073;-60
2022/09/07 12:09:09;;;;;;;;;;;;;;;;;;5050244;28;20060;-60
2022/09/07 12:11:53;;;;;;;6.70;3.90;;;;;;;;;;5049616;28;19923;-60
2022/09/07 12:14:26;;;;;;;5.90;4.18;;;;;;;;;;5049263;28;20056;-60
2022/09/07 12:16:52;;;;;;;5.68;3.83;;;;;;;;;;5049829;28;20136;-59
2022/09/07 12:19:19;;;;;;;9.65;5.10;;;;;;;;;;5048816;28;20120;-60
2022/09/07 12:21:55;;;;;;;6.63;4.93;;;;;;;;;;5048020;28;20033;-60
2022/09/07 12:24:39;;;;;;;8.77;5.05;;;;;;;;;;5032645;28;20377;-60
2022/09/07 12:27:08;;;;;;;4.22;3.42;;;;;;;;;;5044528;28;20679;-60
2022/09/07 12:29:35;;;;;;;7.80;4.22;;;;;;;;;;5038178;28;20044;-61
2022/09/07 12:32:02;;;;;;;4.28;3.78;;;;;;;;;;5041392;28;20036;-60
2022/09/07 12:34:31;;;;;;;5.80;4.28;;;;;;;;;;5032329;28;20399;-60
2022/09/07 12:37:02;;;;;;;6.40;4.22;;;;;;;;;;5032930;28;20053;-60
2022/09/07 12:39:29;;;;;;;7.28;4.05;;;;;;;;;;5033721;28;20034;-61
2022/09/07 12:42:04;;;;;;;6.65;3.65;;;;;;;;;;5040224;28;20071;-60
2022/09/07 12:44:31;;;;;;;7.63;3.63;;;;;;;;;;5052676;28;20033;-60
2022/09/07 12:46:58;;;;;;;5.38;3.22;;;;;;;;;;5052952;28;20412;-60
2022/09/07 12:49:24;;;;;;;5.28;3.17;;;;;;;;;;5053168;28;20538;-60
2022/09/07 12:52:10;;;;;;;4.78;3.58;;;;;;;;;;5049572;28;20135;-60
2022/09/07 12:54:43;;;;;;;7.90;3.22;;;;;;;;;;5032204;28;20057;-60
2022/09/07 12:57:22;;;;;;;5.38;2.80;;;;;;;;;;5032874;28;20055;-60
2022/09/07 13:00:14;;;;;;;5.38;2.78;;;;;;;;;;5032473;28;20060;-60
2022/09/07 13:02:51;;;;;;;4.72;2.42;;;;;;;;;;5034421;28;20122;-60
2022/09/07 13:05:35;;;;;;;4.40;2.47;;;;;;;;;;5041912;28;20045;-60
2022/09/07 13:08:13;;;;;;;3.30;2.00;;;;;;;;;;5033926;28;20046;-60
2022/09/07 13:10:41;;;;;;;5.38;2.28;;;;;;;;;;5004283;28;20096;-61
2022/09/07 13:13:16;;;;;;;3.95;2.47;;;;;;;;;;4996018;28;20062;-60
2022/09/07 13:15:47;;;;;;;6.15;2.83;;;;;;;;;;5005372;28;20378;-61
2022/09/07 13:18:17;;;;;;;4.68;2.50;;;;;;;;;;5009877;28;20069;-60
2022/09/07 13:20:43;;;;;;;5.57;2.85;;;;;;;;;;5013418;28;20049;-60
2022/09/07 13:23:23;;;;;;;4.35;2.67;;;;;;;;;;4997400;28;20092;-60
2022/09/07 13:25:51;;;;;;;3.95;2.58;;;;;;;;;;4993769;28;20588;-60
2022/09/07 13:28:38;;;;;;;4.90;2.72;;;;;;;;;;4993821;28;20085;-59
2022/09/07 13:31:22;;;;;;;4.07;2.42;;;;;;;;;;5008348;28;20044;-60
2022/09/07 13:33:49;;;;;;;5.72;3.03;;;;;;;;;;5012525;28;20034;-60
2022/09/07 13:36:20;;;;;;;3.63;2.60;;;;;;;;;;5013097;28;20040;-60
2022/09/07 13:38:47;;;;;;;5.22;3.10;;;;;;;;;;5013064;28;20129;-60
2022/09/07 13:41:18;;;;;;;4.38;2.70;;;;;;;;;;5012382;28;20026;-60
2022/09/07 13:43:47;;;;;;;3.95;3.00;;;;;;;;;;5012890;28;20044;-60
2022/09/07 13:46:30;;;;;;;4.10;2.40;;;;;;;;;;5013029;28;20049;-60
2022/09/07 13:49:00;;;;;;;3.42;2.30;;;;;;;;;;5013126;28;20080;-60
2022/09/07 13:51:28;;;;;;;2.58;1.90;;;;;;;;;;5012991;28;20144;-60
2022/09/07 13:54:03;;;;;;;4.60;2.03;;;;;;;;;;5010738;28;20041;-60
2022/09/07 13:56:35;;;;;;;3.17;1.77;;;;;;;;;;5012067;28;20045;-60
2022/09/07 13:59:10;;;;;;;4.78;2.42;;;;;;;;;;5012521;28;20041;-60
2022/09/07 14:01:42;;;;;;;5.97;2.78;;;;;;;;;;5011993;28;20042;-60
2022/09/07 14:04:18;;;;;;;4.90;2.75;;;;;;;;;;4994701;28;20039;-60
2022/09/07 14:06:44;;;;;;;3.42;1.60;;;;;;;;;;4992754;28;20045;-60
2022/09/07 14:09:15;;;;;;;3.00;1.63;;;;;;;;;;5000103;28;20053;-60
2022/09/07 14:11:46;;;;;;;3.00;1.90;;;;;;;;;;5011980;28;20080;-59
2022/09/07 14:14:12;;;;;;;3.47;1.90;;;;;;;;;;5012338;28;20042;-60
2022/09/07 14:16:39;;;;;;;3.65;1.98;;;;;;;;;;5010724;28;20046;-60
2022/09/07 14:19:09;;;;;;;2.15;1.63;;;;;;;;;;5012374;28;20038;-60
2022/09/07 14:21:35;;;;;;;2.25;2.00;;;;;;;;;;5012437;28;20037;-60
2022/09/07 14:24:02;;;;;;;3.47;1.63;;;;;;;;;;5012032;28;20038;-60
2022/09/07 14:26:28;;;;;;;2.97;1.30;;;;;;;;;;5024509;28;20072;-60
2022/09/07 14:28:55;;;;;;;3.75;1.40;;;;;;;;;;5030677;28;20041;-60
2022/09/07 14:31:22;;;;;;;2.53;1.52;;;;;;;;;;5031560;28;20041;-60
2022/09/07 14:33:58;;;;;;;14.57;2.47;;;;;;;;;;5032308;28;20041;-60
2022/09/07 14:36:29;;;;;;;4.85;1.70;;;;;;;;;;5031883;28;20551;-60
2022/09/07 14:38:55;;;;;;;2.45;1.20;;;;;;;;;;5031624;28;20095;-60
2022/09/07 14:41:22;;;;;;;2.97;1.55;;;;;;;;;;5031865;28;20495;-59
2022/09/07 14:43:53;;;;;;;1.63;1.17;;;;;;;;;;5031872;28;20041;-60